sensor_id;sensor_type;location;lat;lon;timestamp;P1;durP1;ratioP1;P2;durP2;ratioP2
68234;SDS011;55052;52.056;5.296;2023-09-18T00:00:46;21.65;;;17.10;;
68234;SDS011;55052;52.056;5.296;2023-09-18T00:03:19;24.70;;;16.73;;
68234;SDS011;55052;52.056;5.296;2023-09-18T00:05:47;23.67;;;16.77;;
68234;SDS011;55052;52.056;5.296;2023-09-18T00:08:15;25.02;;;17.67;;
68234;SDS011;55052;52.056;5.296;2023-09-18T00:10:46;22.10;;;17.05;;
68234;SDS011;55052;52.056;5.296;2023-09-18T00:13:18;20.45;;;17.02;;
68234;SDS011;55052;52.056;5.296;2023-09-18T00:15:45;23.08;;;17.95;;
68234;SDS011;55052;52.056;5.296;2023-09-18T00:18:15;20.65;;;16.92;;
68234;SDS011;55052;52.056;5.296;2023-09-18T00:20:43;21.65;;;17.23;;
68234;SDS011;55052;52.056;5.296;2023-09-18T00:23:10;20.98;;;16.67;;
68234;SDS011;55052;52.056;5.296;2023-09-18T00:25:37;24.23;;;17.60;;
68234;SDS011;55052;52.056;5.296;2023-09-18T00:28:04;19.30;;;16.15;;
68234;SDS011;55052;52.056;5.296;2023-09-18T00:30:32;20.83;;;17.08;;
68234;SDS011;55052;52.056;5.296;2023-09-18T00:32:58;22.38;;;17.65;;
68234;SDS011;55052;52.056;5.296;2023-09-18T00:35:25;22.63;;;18.00;;
68234;SDS011;55052;52.056;5.296;2023-09-18T00:37:52;23.15;;;17.35;;
68234;SDS011;55052;52.056;5.296;2023-09-18T00:40:19;22.73;;;17.02;;
68234;SDS011;55052;52.056;5.296;2023-09-18T00:42:46;23.30;;;17.17;;
68234;SDS011;55052;52.056;5.296;2023-09-18T00:45:13;22.92;;;16.90;;
68234;SDS011;55052;52.056;5.296;2023-09-18T00:47:40;22.33;;;16.17;;
68234;SDS011;55052;52.056;5.296;2023-09-18T00:50:07;21.55;;;16.65;;
68234;SDS011;55052;52.056;5.296;2023-09-18T00:52:38;21.00;;;15.98;;
68234;SDS011;55052;52.056;5.296;2023-09-18T00:55:07;19.80;;;16.17;;
68234;SDS011;55052;52.056;5.296;2023-09-18T00:57:35;19.15;;;15.60;;
68234;SDS011;55052;52.056;5.296;2023-09-18T01:00:04;22.88;;;16.55;;
68234;SDS011;55052;52.056;5.296;2023-09-18T01:02:32;20.48;;;16.50;;
68234;SDS011;55052;52.056;5.296;2023-09-18T01:04:59;21.45;;;16.77;;
68234;SDS011;55052;52.056;5.296;2023-09-18T01:07:26;20.75;;;15.98;;
68234;SDS011;55052;52.056;5.296;2023-09-18T01:09:55;19.70;;;16.77;;
68234;SDS011;55052;52.056;5.296;2023-09-18T01:15:21;19.75;;;15.35;;
68234;SDS011;55052;52.056;5.296;2023-09-18T01:17:53;21.95;;;15.20;;
68234;SDS011;55052;52.056;5.296;2023-09-18T01:20:20;20.60;;;15.95;;
68234;SDS011;55052;52.056;5.296;2023-09-18T01:22:47;20.95;;;16.75;;
68234;SDS011;55052;52.056;5.296;2023-09-18T01:25:16;17.00;;;14.75;;
68234;SDS011;55052;52.056;5.296;2023-09-18T01:27:43;22.10;;;15.52;;
68234;SDS011;55052;52.056;5.296;2023-09-18T01:30:10;22.27;;;15.63;;
68234;SDS011;55052;52.056;5.296;2023-09-18T01:32:38;19.88;;;14.90;;
68234;SDS011;55052;52.056;5.296;2023-09-18T01:35:07;20.20;;;14.25;;
68234;SDS011;55052;52.056;5.296;2023-09-18T01:37:35;21.02;;;14.50;;
68234;SDS011;55052;52.056;5.296;2023-09-18T01:40:06;20.63;;;14.07;;
68234;SDS011;55052;52.056;5.296;2023-09-18T01:42:34;17.73;;;12.98;;
68234;SDS011;55052;52.056;5.296;2023-09-18T01:45:02;16.40;;;13.20;;
68234;SDS011;55052;52.056;5.296;2023-09-18T01:47:31;16.05;;;11.57;;
68234;SDS011;55052;52.056;5.296;2023-09-18T01:49:58;13.65;;;11.43;;
68234;SDS011;55052;52.056;5.296;2023-09-18T01:52:31;15.25;;;11.68;;
68234;SDS011;55052;52.056;5.296;2023-09-18T01:54:58;20.85;;;11.98;;
68234;SDS011;55052;52.056;5.296;2023-09-18T01:57:25;15.98;;;11.32;;
68234;SDS011;55052;52.056;5.296;2023-09-18T01:59:52;17.63;;;11.60;;
68234;SDS011;55052;52.056;5.296;2023-09-18T02:02:19;17.27;;;12.48;;
68234;SDS011;55052;52.056;5.296;2023-09-18T02:05:06;16.17;;;11.52;;
68234;SDS011;55052;52.056;5.296;2023-09-18T02:07:35;16.98;;;12.50;;
68234;SDS011;55052;52.056;5.296;2023-09-18T02:10:02;17.75;;;12.73;;
68234;SDS011;55052;52.056;5.296;2023-09-18T02:12:29;17.35;;;12.63;;
68234;SDS011;55052;52.056;5.296;2023-09-18T02:14:56;16.90;;;13.27;;
68234;SDS011;55052;52.056;5.296;2023-09-18T02:17:25;17.77;;;13.30;;
68234;SDS011;55052;52.056;5.296;2023-09-18T02:19:52;17.60;;;13.88;;
68234;SDS011;55052;52.056;5.296;2023-09-18T02:22:18;19.75;;;14.15;;
68234;SDS011;55052;52.056;5.296;2023-09-18T02:24:45;21.48;;;13.98;;
68234;SDS011;55052;52.056;5.296;2023-09-18T02:27:12;22.08;;;14.73;;
68234;SDS011;55052;52.056;5.296;2023-09-18T02:29:43;22.25;;;15.73;;
68234;SDS011;55052;52.056;5.296;2023-09-18T02:32:10;20.30;;;14.80;;
68234;SDS011;55052;52.056;5.296;2023-09-18T02:34:37;22.50;;;14.75;;
68234;SDS011;55052;52.056;5.296;2023-09-18T02:37:03;22.63;;;15.45;;
68234;SDS011;55052;52.056;5.296;2023-09-18T02:39:30;20.35;;;15.00;;
68234;SDS011;55052;52.056;5.296;2023-09-18T02:41:57;24.35;;;15.32;;
68234;SDS011;55052;52.056;5.296;2023-09-18T02:44:24;19.95;;;15.18;;
68234;SDS011;55052;52.056;5.296;2023-09-18T02:46:51;21.33;;;14.32;;
68234;SDS011;55052;52.056;5.296;2023-09-18T02:49:19;20.45;;;15.68;;
68234;SDS011;55052;52.056;5.296;2023-09-18T02:51:46;27.80;;;15.88;;
68234;SDS011;55052;52.056;5.296;2023-09-18T02:54:13;22.23;;;15.48;;
68234;SDS011;55052;52.056;5.296;2023-09-18T02:56:40;20.65;;;15.57;;
68234;SDS011;55052;52.056;5.296;2023-09-18T02:59:07;21.20;;;15.35;;
68234;SDS011;55052;52.056;5.296;2023-09-18T03:01:35;19.98;;;14.88;;
68234;SDS011;55052;52.056;5.296;2023-09-18T03:04:02;20.92;;;15.32;;
68234;SDS011;55052;52.056;5.296;2023-09-18T03:06:30;19.25;;;14.98;;
68234;SDS011;55052;52.056;5.296;2023-09-18T03:08:56;23.13;;;15.80;;
68234;SDS011;55052;52.056;5.296;2023-09-18T03:11:24;21.90;;;16.10;;
68234;SDS011;55052;52.056;5.296;2023-09-18T03:13:53;23.48;;;16.25;;
68234;SDS011;55052;52.056;5.296;2023-09-18T03:16:20;22.15;;;15.82;;
68234;SDS011;55052;52.056;5.296;2023-09-18T03:18:47;24.70;;;17.80;;
68234;SDS011;55052;52.056;5.296;2023-09-18T03:21:14;22.08;;;16.48;;
68234;SDS011;55052;52.056;5.296;2023-09-18T03:23:41;24.20;;;16.63;;
68234;SDS011;55052;52.056;5.296;2023-09-18T03:26:08;23.08;;;16.10;;
68234;SDS011;55052;52.056;5.296;2023-09-18T03:28:35;20.90;;;16.35;;
68234;SDS011;55052;52.056;5.296;2023-09-18T03:31:01;23.00;;;16.05;;
68234;SDS011;55052;52.056;5.296;2023-09-18T03:33:31;25.38;;;17.60;;
68234;SDS011;55052;52.056;5.296;2023-09-18T03:35:58;22.23;;;16.50;;
68234;SDS011;55052;52.056;5.296;2023-09-18T03:38:25;22.55;;;16.42;;
68234;SDS011;55052;52.056;5.296;2023-09-18T03:40:51;20.83;;;15.93;;
68234;SDS011;55052;52.056;5.296;2023-09-18T03:43:18;23.50;;;17.05;;
68234;SDS011;55052;52.056;5.296;2023-09-18T03:45:45;22.67;;;17.25;;
68234;SDS011;55052;52.056;5.296;2023-09-18T03:48:12;20.00;;;16.05;;
68234;SDS011;55052;52.056;5.296;2023-09-18T03:50:39;22.48;;;16.80;;
68234;SDS011;55052;52.056;5.296;2023-09-18T03:53:07;23.83;;;15.77;;
68234;SDS011;55052;52.056;5.296;2023-09-18T03:55:35;28.08;;;16.50;;
68234;SDS011;55052;52.056;5.296;2023-09-18T03:58:02;25.52;;;16.52;;
68234;SDS011;55052;52.056;5.296;2023-09-18T04:00:30;20.75;;;15.23;;
68234;SDS011;55052;52.056;5.296;2023-09-18T04:02:57;26.45;;;16.13;;
68234;SDS011;55052;52.056;5.296;2023-09-18T04:05:24;18.75;;;14.90;;
68234;SDS011;55052;52.056;5.296;2023-09-18T04:07:51;23.52;;;15.38;;
68234;SDS011;55052;52.056;5.296;2023-09-18T04:10:18;23.17;;;14.93;;
68234;SDS011;55052;52.056;5.296;2023-09-18T04:12:50;21.40;;;15.05;;
68234;SDS011;55052;52.056;5.296;2023-09-18T04:15:18;21.75;;;14.73;;
68234;SDS011;55052;52.056;5.296;2023-09-18T04:17:46;22.90;;;15.40;;
68234;SDS011;55052;52.056;5.296;2023-09-18T04:20:13;24.42;;;15.20;;
68234;SDS011;55052;52.056;5.296;2023-09-18T04:22:42;19.13;;;13.60;;
68234;SDS011;55052;52.056;5.296;2023-09-18T04:25:11;19.90;;;14.40;;
68234;SDS011;55052;52.056;5.296;2023-09-18T04:27:38;18.65;;;13.23;;
68234;SDS011;55052;52.056;5.296;2023-09-18T04:30:06;18.80;;;13.10;;
68234;SDS011;55052;52.056;5.296;2023-09-18T04:32:40;15.35;;;12.50;;
68234;SDS011;55052;52.056;5.296;2023-09-18T04:35:07;26.75;;;16.27;;
68234;SDS011;55052;52.056;5.296;2023-09-18T04:37:36;20.40;;;16.20;;
68234;SDS011;55052;52.056;5.296;2023-09-18T04:40:07;20.98;;;14.23;;
68234;SDS011;55052;52.056;5.296;2023-09-18T04:42:38;20.92;;;14.63;;
68234;SDS011;55052;52.056;5.296;2023-09-18T04:45:06;18.55;;;13.50;;
68234;SDS011;55052;52.056;5.296;2023-09-18T04:47:33;20.55;;;13.65;;
68234;SDS011;55052;52.056;5.296;2023-09-18T04:50:01;22.15;;;12.95;;
68234;SDS011;55052;52.056;5.296;2023-09-18T04:52:38;17.38;;;12.95;;
68234;SDS011;55052;52.056;5.296;2023-09-18T04:55:07;16.80;;;11.57;;
68234;SDS011;55052;52.056;5.296;2023-09-18T04:57:35;19.15;;;11.23;;
68234;SDS011;55052;52.056;5.296;2023-09-18T05:00:02;14.73;;;10.55;;
68234;SDS011;55052;52.056;5.296;2023-09-18T05:02:42;15.90;;;10.02;;
68234;SDS011;55052;52.056;5.296;2023-09-18T05:05:09;15.40;;;10.15;;
68234;SDS011;55052;52.056;5.296;2023-09-18T05:07:36;16.77;;;10.75;;
68234;SDS011;55052;52.056;5.296;2023-09-18T05:10:03;13.95;;;9.75;;
68234;SDS011;55052;52.056;5.296;2023-09-18T05:12:31;15.73;;;10.13;;
68234;SDS011;55052;52.056;5.296;2023-09-18T05:14:58;13.43;;;9.48;;
68234;SDS011;55052;52.056;5.296;2023-09-18T05:17:47;15.52;;;9.68;;
68234;SDS011;55052;52.056;5.296;2023-09-18T05:20:16;16.40;;;9.43;;
68234;SDS011;55052;52.056;5.296;2023-09-18T05:22:44;15.03;;;9.83;;
68234;SDS011;55052;52.056;5.296;2023-09-18T05:25:12;12.68;;;9.13;;
68234;SDS011;55052;52.056;5.296;2023-09-18T05:27:41;13.85;;;10.05;;
68234;SDS011;55052;52.056;5.296;2023-09-18T05:30:15;15.07;;;9.75;;
68234;SDS011;55052;52.056;5.296;2023-09-18T05:32:48;16.83;;;9.50;;
68234;SDS011;55052;52.056;5.296;2023-09-18T05:35:15;13.77;;;9.57;;
68234;SDS011;55052;52.056;5.296;2023-09-18T05:37:43;16.85;;;9.73;;
68234;SDS011;55052;52.056;5.296;2023-09-18T05:40:11;15.32;;;9.45;;
68234;SDS011;55052;52.056;5.296;2023-09-18T05:42:39;19.80;;;9.65;;
68234;SDS011;55052;52.056;5.296;2023-09-18T05:45:12;18.52;;;9.52;;
68234;SDS011;55052;52.056;5.296;2023-09-18T05:47:39;16.73;;;9.80;;
68234;SDS011;55052;52.056;5.296;2023-09-18T05:50:07;13.88;;;9.15;;
68234;SDS011;55052;52.056;5.296;2023-09-18T05:52:35;18.98;;;9.48;;
68234;SDS011;55052;52.056;5.296;2023-09-18T05:55:02;12.90;;;8.77;;
68234;SDS011;55052;52.056;5.296;2023-09-18T05:57:31;13.02;;;8.80;;
68234;SDS011;55052;52.056;5.296;2023-09-18T05:59:58;11.93;;;9.07;;
68234;SDS011;55052;52.056;5.296;2023-09-18T06:02:25;12.15;;;8.43;;
68234;SDS011;55052;52.056;5.296;2023-09-18T06:04:55;12.25;;;8.60;;
68234;SDS011;55052;52.056;5.296;2023-09-18T06:07:24;18.23;;;8.93;;
68234;SDS011;55052;52.056;5.296;2023-09-18T06:09:51;10.30;;;7.70;;
68234;SDS011;55052;52.056;5.296;2023-09-18T06:12:19;14.07;;;8.48;;
68234;SDS011;55052;52.056;5.296;2023-09-18T06:14:46;13.95;;;8.77;;
68234;SDS011;55052;52.056;5.296;2023-09-18T06:17:14;11.50;;;8.52;;
68234;SDS011;55052;52.056;5.296;2023-09-18T06:19:41;12.68;;;8.38;;
68234;SDS011;55052;52.056;5.296;2023-09-18T06:22:09;17.38;;;9.02;;
68234;SDS011;55052;52.056;5.296;2023-09-18T06:24:35;11.35;;;7.90;;
68234;SDS011;55052;52.056;5.296;2023-09-18T06:27:02;12.85;;;7.63;;
68234;SDS011;55052;52.056;5.296;2023-09-18T06:29:33;12.40;;;8.35;;
68234;SDS011;55052;52.056;5.296;2023-09-18T06:32:00;11.77;;;8.00;;
68234;SDS011;55052;52.056;5.296;2023-09-18T06:34:27;12.63;;;8.10;;
68234;SDS011;55052;52.056;5.296;2023-09-18T06:36:54;10.88;;;7.93;;
68234;SDS011;55052;52.056;5.296;2023-09-18T06:39:21;11.30;;;7.80;;
68234;SDS011;55052;52.056;5.296;2023-09-18T06:41:50;12.75;;;8.05;;
68234;SDS011;55052;52.056;5.296;2023-09-18T06:44:17;12.40;;;8.15;;
68234;SDS011;55052;52.056;5.296;2023-09-18T06:46:44;12.52;;;8.27;;
68234;SDS011;55052;52.056;5.296;2023-09-18T06:49:10;15.05;;;8.52;;
68234;SDS011;55052;52.056;5.296;2023-09-18T06:51:37;14.55;;;9.07;;
68234;SDS011;55052;52.056;5.296;2023-09-18T06:54:08;11.98;;;8.38;;
68234;SDS011;55052;52.056;5.296;2023-09-18T06:56:35;13.57;;;9.05;;
68234;SDS011;55052;52.056;5.296;2023-09-18T06:59:02;11.93;;;9.18;;
68234;SDS011;55052;52.056;5.296;2023-09-18T07:01:29;16.85;;;9.48;;
68234;SDS011;55052;52.056;5.296;2023-09-18T07:03:58;13.98;;;9.27;;
68234;SDS011;55052;52.056;5.296;2023-09-18T07:06:26;15.40;;;9.13;;
68234;SDS011;55052;52.056;5.296;2023-09-18T07:08:54;13.95;;;9.75;;
68234;SDS011;55052;52.056;5.296;2023-09-18T07:11:22;12.45;;;9.23;;
68234;SDS011;55052;52.056;5.296;2023-09-18T07:13:51;12.75;;;8.90;;
68234;SDS011;55052;52.056;5.296;2023-09-18T07:16:18;13.68;;;8.32;;
68234;SDS011;55052;52.056;5.296;2023-09-18T07:18:45;14.90;;;8.77;;
68234;SDS011;55052;52.056;5.296;2023-09-18T07:21:12;12.43;;;7.95;;
68234;SDS011;55052;52.056;5.296;2023-09-18T07:23:40;12.30;;;7.68;;
68234;SDS011;55052;52.056;5.296;2023-09-18T07:26:07;12.80;;;7.40;;
68234;SDS011;55052;52.056;5.296;2023-09-18T07:28:34;11.52;;;7.22;;
68234;SDS011;55052;52.056;5.296;2023-09-18T07:31:07;12.07;;;8.10;;
68234;SDS011;55052;52.056;5.296;2023-09-18T07:33:35;11.60;;;7.03;;
68234;SDS011;55052;52.056;5.296;2023-09-18T07:36:02;10.52;;;7.50;;
68234;SDS011;55052;52.056;5.296;2023-09-18T07:38:30;10.10;;;6.90;;
68234;SDS011;55052;52.056;5.296;2023-09-18T07:40:57;10.82;;;7.05;;
68234;SDS011;55052;52.056;5.296;2023-09-18T07:43:24;10.90;;;6.50;;
68234;SDS011;55052;52.056;5.296;2023-09-18T07:45:52;10.15;;;6.75;;
68234;SDS011;55052;52.056;5.296;2023-09-18T07:48:21;11.52;;;6.60;;
68234;SDS011;55052;52.056;5.296;2023-09-18T07:50:48;10.27;;;6.65;;
68234;SDS011;55052;52.056;5.296;2023-09-18T07:53:17;9.00;;;6.47;;
68234;SDS011;55052;52.056;5.296;2023-09-18T07:55:45;9.32;;;6.07;;
68234;SDS011;55052;52.056;5.296;2023-09-18T07:58:14;9.55;;;6.50;;
68234;SDS011;55052;52.056;5.296;2023-09-18T08:00:40;10.32;;;5.57;;
68234;SDS011;55052;52.056;5.296;2023-09-18T08:03:07;8.57;;;5.35;;
68234;SDS011;55052;52.056;5.296;2023-09-18T08:05:35;7.32;;;4.93;;
68234;SDS011;55052;52.056;5.296;2023-09-18T08:08:02;10.88;;;5.07;;
68234;SDS011;55052;52.056;5.296;2023-09-18T08:10:31;7.05;;;4.90;;
68234;SDS011;55052;52.056;5.296;2023-09-18T08:12:58;10.88;;;5.05;;
68234;SDS011;55052;52.056;5.296;2023-09-18T08:15:25;7.35;;;4.57;;
68234;SDS011;55052;52.056;5.296;2023-09-18T08:17:53;10.48;;;5.40;;
68234;SDS011;55052;52.056;5.296;2023-09-18T08:20:21;10.13;;;5.32;;
68234;SDS011;55052;52.056;5.296;2023-09-18T08:22:48;9.57;;;4.85;;
68234;SDS011;55052;52.056;5.296;2023-09-18T08:25:15;7.93;;;4.93;;
68234;SDS011;55052;52.056;5.296;2023-09-18T08:27:42;8.85;;;5.10;;
68234;SDS011;55052;52.056;5.296;2023-09-18T08:30:11;9.77;;;4.75;;
68234;SDS011;55052;52.056;5.296;2023-09-18T08:32:39;9.63;;;4.95;;
68234;SDS011;55052;52.056;5.296;2023-09-18T08:35:08;9.88;;;4.95;;
68234;SDS011;55052;52.056;5.296;2023-09-18T08:37:35;6.07;;;4.65;;
68234;SDS011;55052;52.056;5.296;2023-09-18T08:40:02;12.95;;;4.88;;
68234;SDS011;55052;52.056;5.296;2023-09-18T08:42:38;9.05;;;4.95;;
68234;SDS011;55052;52.056;5.296;2023-09-18T08:45:31;9.50;;;4.70;;
68234;SDS011;55052;52.056;5.296;2023-09-18T08:48:19;8.30;;;4.80;;
68234;SDS011;55052;52.056;5.296;2023-09-18T08:50:47;7.72;;;4.70;;
68234;SDS011;55052;52.056;5.296;2023-09-18T08:53:15;7.88;;;4.50;;
68234;SDS011;55052;52.056;5.296;2023-09-18T08:55:42;8.70;;;4.72;;
68234;SDS011;55052;52.056;5.296;2023-09-18T08:58:09;7.30;;;4.47;;
68234;SDS011;55052;52.056;5.296;2023-09-18T09:00:36;7.32;;;4.35;;
68234;SDS011;55052;52.056;5.296;2023-09-18T09:03:04;7.03;;;4.40;;
68234;SDS011;55052;52.056;5.296;2023-09-18T09:05:31;8.60;;;4.68;;
68234;SDS011;55052;52.056;5.296;2023-09-18T09:07:59;7.20;;;4.70;;
68234;SDS011;55052;52.056;5.296;2023-09-18T09:10:27;7.85;;;4.60;;
68234;SDS011;55052;52.056;5.296;2023-09-18T09:12:55;9.65;;;4.10;;
68234;SDS011;55052;52.056;5.296;2023-09-18T09:15:25;9.50;;;3.85;;
68234;SDS011;55052;52.056;5.296;2023-09-18T09:18:02;6.35;;;3.90;;
68234;SDS011;55052;52.056;5.296;2023-09-18T09:20:33;9.48;;;4.15;;
68234;SDS011;55052;52.056;5.296;2023-09-18T09:23:02;6.57;;;3.92;;
68234;SDS011;55052;52.056;5.296;2023-09-18T09:25:31;7.60;;;3.80;;
68234;SDS011;55052;52.056;5.296;2023-09-18T09:28:00;7.80;;;3.47;;
68234;SDS011;55052;52.056;5.296;2023-09-18T09:30:30;7.45;;;3.92;;
68234;SDS011;55052;52.056;5.296;2023-09-18T09:32:58;7.53;;;4.38;;
68234;SDS011;55052;52.056;5.296;2023-09-18T09:35:26;7.00;;;4.20;;
68234;SDS011;55052;52.056;5.296;2023-09-18T09:37:59;6.53;;;4.07;;
68234;SDS011;55052;52.056;5.296;2023-09-18T09:40:38;6.60;;;4.50;;
68234;SDS011;55052;52.056;5.296;2023-09-18T09:43:07;7.28;;;4.82;;
68234;SDS011;55052;52.056;5.296;2023-09-18T09:45:35;9.80;;;4.85;;
68234;SDS011;55052;52.056;5.296;2023-09-18T09:48:03;12.77;;;5.13;;
68234;SDS011;55052;52.056;5.296;2023-09-18T09:53:00;6.75;;;5.07;;
68234;SDS011;55052;52.056;5.296;2023-09-18T09:55:32;7.35;;;5.60;;
68234;SDS011;55052;52.056;5.296;2023-09-18T09:58:04;6.80;;;5.20;;
68234;SDS011;55052;52.056;5.296;2023-09-18T10:00:37;7.35;;;5.78;;
68234;SDS011;55052;52.056;5.296;2023-09-18T10:03:16;7.78;;;5.75;;
68234;SDS011;55052;52.056;5.296;2023-09-18T10:05:45;9.13;;;5.72;;
68234;SDS011;55052;52.056;5.296;2023-09-18T10:08:18;8.77;;;6.20;;
68234;SDS011;55052;52.056;5.296;2023-09-18T10:10:51;10.05;;;5.60;;
68234;SDS011;55052;52.056;5.296;2023-09-18T10:13:20;8.35;;;5.85;;
68234;SDS011;55052;52.056;5.296;2023-09-18T10:15:55;7.63;;;5.90;;
68234;SDS011;55052;52.056;5.296;2023-09-18T10:21:27;9.10;;;6.93;;
68234;SDS011;55052;52.056;5.296;2023-09-18T10:24:20;9.80;;;7.70;;
68234;SDS011;55052;52.056;5.296;2023-09-18T10:27:01;14.93;;;8.30;;
68234;SDS011;55052;52.056;5.296;2023-09-18T10:29:29;11.38;;;8.98;;
68234;SDS011;55052;52.056;5.296;2023-09-18T10:31:58;11.88;;;9.65;;
68234;SDS011;55052;52.056;5.296;2023-09-18T10:34:27;11.82;;;9.43;;
68234;SDS011;55052;52.056;5.296;2023-09-18T10:36:56;10.50;;;9.13;;
68234;SDS011;55052;52.056;5.296;2023-09-18T10:41:56;12.70;;;8.85;;
68234;SDS011;55052;52.056;5.296;2023-09-18T10:44:28;10.90;;;8.77;;
68234;SDS011;55052;52.056;5.296;2023-09-18T10:46:58;11.35;;;8.60;;
68234;SDS011;55052;52.056;5.296;2023-09-18T10:49:28;12.88;;;8.60;;
68234;SDS011;55052;52.056;5.296;2023-09-18T10:51:55;13.85;;;8.77;;
68234;SDS011;55052;52.056;5.296;2023-09-18T10:54:25;10.68;;;7.95;;
68234;SDS011;55052;52.056;5.296;2023-09-18T10:56:53;10.20;;;7.90;;
68234;SDS011;55052;52.056;5.296;2023-09-18T10:59:23;9.80;;;7.57;;
68234;SDS011;55052;52.056;5.296;2023-09-18T11:01:50;10.88;;;7.50;;
68234;SDS011;55052;52.056;5.296;2023-09-18T11:04:19;10.15;;;7.05;;
68234;SDS011;55052;52.056;5.296;2023-09-18T11:12:02;10.15;;;6.22;;
68234;SDS011;55052;52.056;5.296;2023-09-18T11:14:45;8.73;;;6.05;;
68234;SDS011;55052;52.056;5.296;2023-09-18T11:17:27;10.60;;;5.72;;
68234;SDS011;55052;52.056;5.296;2023-09-18T11:22:40;9.27;;;4.65;;
68234;SDS011;55052;52.056;5.296;2023-09-18T11:28:08;9.38;;;5.47;;
68234;SDS011;55052;52.056;5.296;2023-09-18T11:30:48;8.48;;;4.75;;
68234;SDS011;55052;52.056;5.296;2023-09-18T11:33:33;9.35;;;5.32;;
68234;SDS011;55052;52.056;5.296;2023-09-18T11:36:04;9.80;;;6.00;;
68234;SDS011;55052;52.056;5.296;2023-09-18T11:38:34;14.70;;;6.03;;
68234;SDS011;55052;52.056;5.296;2023-09-18T11:41:27;9.57;;;6.28;;
68234;SDS011;55052;52.056;5.296;2023-09-18T11:46:45;12.70;;;6.90;;
68234;SDS011;55052;52.056;5.296;2023-09-18T11:49:22;10.90;;;7.32;;
68234;SDS011;55052;52.056;5.296;2023-09-18T11:51:53;10.75;;;7.22;;
68234;SDS011;55052;52.056;5.296;2023-09-18T11:54:21;9.98;;;6.60;;
68234;SDS011;55052;52.056;5.296;2023-09-18T11:56:47;9.73;;;6.68;;
68234;SDS011;55052;52.056;5.296;2023-09-18T11:59:14;11.48;;;6.65;;
68234;SDS011;55052;52.056;5.296;2023-09-18T12:01:41;13.70;;;6.25;;
68234;SDS011;55052;52.056;5.296;2023-09-18T12:04:12;11.02;;;6.35;;
68234;SDS011;55052;52.056;5.296;2023-09-18T12:06:41;8.43;;;5.22;;
68234;SDS011;55052;52.056;5.296;2023-09-18T12:09:08;11.70;;;5.40;;
68234;SDS011;55052;52.056;5.296;2023-09-18T12:11:35;9.75;;;4.93;;
68234;SDS011;55052;52.056;5.296;2023-09-18T12:14:04;8.55;;;4.70;;
68234;SDS011;55052;52.056;5.296;2023-09-18T12:16:37;9.52;;;4.93;;
68234;SDS011;55052;52.056;5.296;2023-09-18T12:19:07;11.48;;;5.03;;
68234;SDS011;55052;52.056;5.296;2023-09-18T12:21:40;9.68;;;4.40;;
68234;SDS011;55052;52.056;5.296;2023-09-18T12:24:28;8.00;;;4.40;;
68234;SDS011;55052;52.056;5.296;2023-09-18T12:26:55;10.85;;;4.35;;
68234;SDS011;55052;52.056;5.296;2023-09-18T12:29:24;6.55;;;3.50;;
68234;SDS011;55052;52.056;5.296;2023-09-18T12:31:51;7.28;;;4.30;;
68234;SDS011;55052;52.056;5.296;2023-09-18T12:34:19;7.63;;;4.43;;
68234;SDS011;55052;52.056;5.296;2023-09-18T12:36:50;7.72;;;4.47;;
68234;SDS011;55052;52.056;5.296;2023-09-18T12:39:17;7.80;;;4.47;;
68234;SDS011;55052;52.056;5.296;2023-09-18T12:41:47;13.60;;;5.07;;
68234;SDS011;55052;52.056;5.296;2023-09-18T12:44:14;12.07;;;5.20;;
68234;SDS011;55052;52.056;5.296;2023-09-18T12:46:43;9.50;;;4.90;;
68234;SDS011;55052;52.056;5.296;2023-09-18T12:49:17;6.78;;;5.07;;
68234;SDS011;55052;52.056;5.296;2023-09-18T12:51:55;8.38;;;5.05;;
68234;SDS011;55052;52.056;5.296;2023-09-18T12:54:41;9.65;;;4.97;;
68234;SDS011;55052;52.056;5.296;2023-09-18T12:57:14;8.40;;;5.15;;
68234;SDS011;55052;52.056;5.296;2023-09-18T12:59:42;8.38;;;5.00;;
68234;SDS011;55052;52.056;5.296;2023-09-18T13:02:09;10.90;;;5.30;;
68234;SDS011;55052;52.056;5.296;2023-09-18T13:04:40;6.80;;;4.32;;
68234;SDS011;55052;52.056;5.296;2023-09-18T13:07:12;9.75;;;4.50;;
68234;SDS011;55052;52.056;5.296;2023-09-18T13:09:40;8.38;;;4.10;;
68234;SDS011;55052;52.056;5.296;2023-09-18T13:12:07;8.25;;;4.15;;
68234;SDS011;55052;52.056;5.296;2023-09-18T13:17:46;6.45;;;3.92;;
68234;SDS011;55052;52.056;5.296;2023-09-18T13:20:15;8.75;;;4.22;;
68234;SDS011;55052;52.056;5.296;2023-09-18T13:22:49;8.38;;;3.97;;
68234;SDS011;55052;52.056;5.296;2023-09-18T13:25:24;9.38;;;4.05;;
68234;SDS011;55052;52.056;5.296;2023-09-18T13:27:56;7.53;;;3.97;;
68234;SDS011;55052;52.056;5.296;2023-09-18T13:30:24;7.85;;;3.60;;
68234;SDS011;55052;52.056;5.296;2023-09-18T13:32:51;10.20;;;4.07;;
68234;SDS011;55052;52.056;5.296;2023-09-18T13:35:46;6.95;;;3.45;;
68234;SDS011;55052;52.056;5.296;2023-09-18T13:38:13;8.63;;;3.95;;
68234;SDS011;55052;52.056;5.296;2023-09-18T13:40:46;7.28;;;3.22;;
68234;SDS011;55052;52.056;5.296;2023-09-18T13:43:14;8.52;;;3.05;;
68234;SDS011;55052;52.056;5.296;2023-09-18T13:45:45;7.90;;;2.80;;
68234;SDS011;55052;52.056;5.296;2023-09-18T13:48:12;7.53;;;3.50;;
68234;SDS011;55052;52.056;5.296;2023-09-18T13:50:39;6.65;;;3.00;;
68234;SDS011;55052;52.056;5.296;2023-09-18T13:53:06;5.60;;;2.88;;
68234;SDS011;55052;52.056;5.296;2023-09-18T13:55:33;5.47;;;2.60;;
68234;SDS011;55052;52.056;5.296;2023-09-18T13:58:01;4.68;;;2.42;;
68234;SDS011;55052;52.056;5.296;2023-09-18T14:00:31;9.40;;;2.60;;
68234;SDS011;55052;52.056;5.296;2023-09-18T14:02:59;6.97;;;2.45;;
68234;SDS011;55052;52.056;5.296;2023-09-18T14:05:26;4.82;;;2.50;;
68234;SDS011;55052;52.056;5.296;2023-09-18T14:07:54;7.43;;;2.75;;
68234;SDS011;55052;52.056;5.296;2023-09-18T14:10:26;4.97;;;2.80;;
68234;SDS011;55052;52.056;5.296;2023-09-18T14:12:54;5.32;;;2.25;;
68234;SDS011;55052;52.056;5.296;2023-09-18T14:15:21;5.72;;;2.25;;
68234;SDS011;55052;52.056;5.296;2023-09-18T14:17:48;4.68;;;2.30;;
68234;SDS011;55052;52.056;5.296;2023-09-18T14:20:16;5.50;;;2.30;;
68234;SDS011;55052;52.056;5.296;2023-09-18T14:22:45;5.43;;;2.20;;
68234;SDS011;55052;52.056;5.296;2023-09-18T14:25:16;4.65;;;2.28;;
68234;SDS011;55052;52.056;5.296;2023-09-18T14:27:43;3.75;;;2.00;;
68234;SDS011;55052;52.056;5.296;2023-09-18T14:30:10;5.30;;;2.30;;
68234;SDS011;55052;52.056;5.296;2023-09-18T14:32:39;5.03;;;2.22;;
68234;SDS011;55052;52.056;5.296;2023-09-18T14:35:06;7.28;;;2.40;;
68234;SDS011;55052;52.056;5.296;2023-09-18T14:37:36;8.32;;;2.50;;
68234;SDS011;55052;52.056;5.296;2023-09-18T14:40:03;5.05;;;2.40;;
68234;SDS011;55052;52.056;5.296;2023-09-18T14:42:31;3.88;;;2.08;;
68234;SDS011;55052;52.056;5.296;2023-09-18T14:44:58;7.93;;;2.40;;
68234;SDS011;55052;52.056;5.296;2023-09-18T14:47:24;6.57;;;2.55;;
68234;SDS011;55052;52.056;5.296;2023-09-18T14:49:51;6.00;;;2.55;;
68234;SDS011;55052;52.056;5.296;2023-09-18T14:52:18;4.35;;;2.38;;
68234;SDS011;55052;52.056;5.296;2023-09-18T14:54:47;7.95;;;2.50;;
68234;SDS011;55052;52.056;5.296;2023-09-18T14:57:14;4.05;;;2.13;;
68234;SDS011;55052;52.056;5.296;2023-09-18T14:59:41;8.43;;;2.72;;
68234;SDS011;55052;52.056;5.296;2023-09-18T15:02:14;8.75;;;3.20;;
68234;SDS011;55052;52.056;5.296;2023-09-18T15:04:42;4.95;;;2.47;;
68234;SDS011;55052;52.056;5.296;2023-09-18T15:07:09;8.40;;;2.10;;
68234;SDS011;55052;52.056;5.296;2023-09-18T15:09:37;4.13;;;1.50;;
68234;SDS011;55052;52.056;5.296;2023-09-18T15:12:04;5.10;;;1.67;;
68234;SDS011;55052;52.056;5.296;2023-09-18T15:14:35;4.97;;;1.80;;